Portada
METAR-TAF:

METAR-TAF

Aeroports :

Salalah, Oman

latitud: 17-02N, longitud: 054-05E, altitud: 20 m

Observació

L'informe es va fer fa 1 hora i 7 minuts, a les 15:50 UTC
Vent 7 kt del Sud
Temperatura 28°C
Humitat 74%
Pressió 1012 hPa
Visibilitat 10 km o més
sense núvols per sota de 1500 mi sense presència de cumulonimbus.

METAR: OOSA 131550Z 18007KT CAVOK 28/23 Q1012 NOSIG

Hora: 20:57 (16:57 UTC)

Pronòstic

L'informe es va fer fa 5 hores i 17 minuts, a les 11:40 UTC
Pronòstic vàlid del 13 a les 12 UTC al 14 a les 18 UTC
Vent 14 kt del Sud
Visibilitat 10 km o més
Núvols disperses a una alçada de 2500 ft
Evolucionant progressivament
l' 13 a les 23 UTC al 14 a les 01 UTC
Vent 3 kt amb direcció variable
Evolucionant progressivament
l' 14 a les 06 UTC al 14 a les 08 UTC
Vent 12 kt del Sud

TAF: OOSA 131140Z 1312/1418 18014KT 9999 SCT025 BECMG 1323/1401 VRB03KT BECMG 1406/1408 19012KT

Observacions i pronòstics meteorològics de més de 4000 aeroports (METAR i TAF).

Les estacions disponibles són els punts grocs i vermells al mapa.

Posi el ratolí al punt desitjat per veure el nom de l'estació.

Feu clic per veure les observacions i els pronòstics meteorològics.

Per canviar el mapa: feu clic els botons verds amb una creu de color negre per apropar; al botó verd amb un guió per allunyar la imatge; o en les fletxes verdes per a mapes adjacents.


METAR-TAF: